Terminal Aerodrome Forecast
Issued by NWS Sterling, VA

Current Version | Previous Version | Graphics & Text | Print | Product List | Glossary On
Versions: 1 2 3 4 5 6 7 8 9 10 11 12 13 14 15 16 17 18 19 20 21 22 23 24 25 26
017
FTUS41 KLWX 180844 AAA
TAFIAD
TAF AMD
KIAD 180844Z 1809/1912 31004KT 1SM BR BKN003 OVC050
     FM181100 31007KT P6SM BKN040
     FM181500 31015G22KT P6SM BKN035
     FM182300 32008KT P6SM SCT050=

USA.gov is the U.S. government's official web portal to all federal, state and local government web resources and services.